sensor_id;sensor_type;location;lat;lon;timestamp;pressure;altitude;pressure_sealevel;temperature
49567;BMP280;35472;50.514;30.448;2024-01-11T00:01:24;100174.09;;;-2.45
49567;BMP280;35472;50.514;30.448;2024-01-11T00:03:50;100175.75;;;-2.49
49567;BMP280;35472;50.514;30.448;2024-01-11T00:06:15;100162.22;;;-2.56
49567;BMP280;35472;50.514;30.448;2024-01-11T00:08:40;100158.13;;;-2.62
49567;BMP280;35472;50.514;30.448;2024-01-11T00:11:06;100169.25;;;-2.65
49567;BMP280;35472;50.514;30.448;2024-01-11T00:13:31;100158.13;;;-2.62
49567;BMP280;35472;50.514;30.448;2024-01-11T00:15:56;100162.91;;;-2.64
49567;BMP280;35472;50.514;30.448;2024-01-11T00:18:30;100157.06;;;-2.61
49567;BMP280;35472;50.514;30.448;2024-01-11T00:20:55;100167.16;;;-2.77
49567;BMP280;35472;50.514;30.448;2024-01-11T00:23:20;100164.16;;;-2.97
49567;BMP280;35472;50.514;30.448;2024-01-11T00:25:46;100154.28;;;-2.78
49567;BMP280;35472;50.514;30.448;2024-01-11T00:28:12;100152.34;;;-2.86
49567;BMP280;35472;50.514;30.448;2024-01-11T00:30:37;100148.75;;;-2.90
49567;BMP280;35472;50.514;30.448;2024-01-11T00:33:04;100148.06;;;-2.82
49567;BMP280;35472;50.514;30.448;2024-01-11T00:35:29;100143.88;;;-2.97
49567;BMP280;35472;50.514;30.448;2024-01-11T00:37:54;100142.13;;;-2.88
49567;BMP280;35472;50.514;30.448;2024-01-11T00:40:19;100155.06;;;-2.78
49567;BMP280;35472;50.514;30.448;2024-01-11T00:42:45;100144.31;;;-2.81
49567;BMP280;35472;50.514;30.448;2024-01-11T00:45:10;100145.13;;;-2.94
49567;BMP280;35472;50.514;30.448;2024-01-11T00:47:35;100141.44;;;-2.93
49567;BMP280;35472;50.514;30.448;2024-01-11T00:50:01;100130.31;;;-2.90
49567;BMP280;35472;50.514;30.448;2024-01-11T00:52:26;100134.00;;;-2.78
49567;BMP280;35472;50.514;30.448;2024-01-11T00:54:51;100114.25;;;-2.89
49567;BMP280;35472;50.514;30.448;2024-01-11T00:57:17;100121.19;;;-2.70
49567;BMP280;35472;50.514;30.448;2024-01-11T00:59:43;100114.34;;;-2.58
49567;BMP280;35472;50.514;30.448;2024-01-11T01:02:08;100114.84;;;-2.69
49567;BMP280;35472;50.514;30.448;2024-01-11T01:04:37;100102.75;;;-2.70
49567;BMP280;35472;50.514;30.448;2024-01-11T01:07:03;100106.25;;;-2.61
49567;BMP280;35472;50.514;30.448;2024-01-11T01:09:28;100097.25;;;-2.83
49567;BMP280;35472;50.514;30.448;2024-01-11T01:11:54;100101.97;;;-2.71
49567;BMP280;35472;50.514;30.448;2024-01-11T01:14:19;100094.63;;;-2.60
49567;BMP280;35472;50.514;30.448;2024-01-11T01:16:46;100084.88;;;-2.60
49567;BMP280;35472;50.514;30.448;2024-01-11T01:19:11;100088.53;;;-2.69
49567;BMP280;35472;50.514;30.448;2024-01-11T01:21:37;100087.88;;;-2.75
49567;BMP280;35472;50.514;30.448;2024-01-11T01:24:03;100088.53;;;-2.69
49567;BMP280;35472;50.514;30.448;2024-01-11T01:26:28;100083.34;;;-2.61
49567;BMP280;35472;50.514;30.448;2024-01-11T01:28:53;100076.25;;;-2.74
49567;BMP280;35472;50.514;30.448;2024-01-11T01:31:20;100069.59;;;-2.71
49567;BMP280;35472;50.514;30.448;2024-01-11T01:33:46;100065.91;;;-2.70
49567;BMP280;35472;50.514;30.448;2024-01-11T01:36:11;100064.31;;;-2.58
49567;BMP280;35472;50.514;30.448;2024-01-11T01:38:37;100062.78;;;-2.72
49567;BMP280;35472;50.514;30.448;2024-01-11T01:41:02;100059.72;;;-2.66
49567;BMP280;35472;50.514;30.448;2024-01-11T01:43:28;100055.44;;;-2.62
49567;BMP280;35472;50.514;30.448;2024-01-11T01:45:53;100052.09;;;-2.54
49567;BMP280;35472;50.514;30.448;2024-01-11T01:48:19;100048.13;;;-2.65
49567;BMP280;35472;50.514;30.448;2024-01-11T01:50:47;100043.81;;;-2.61
49567;BMP280;35472;50.514;30.448;2024-01-11T01:53:19;100028.84;;;-2.74
49567;BMP280;35472;50.514;30.448;2024-01-11T01:55:46;100022.94;;;-2.57
49567;BMP280;35472;50.514;30.448;2024-01-11T01:58:13;100013.97;;;-2.56
49567;BMP280;35472;50.514;30.448;2024-01-11T02:00:38;100002.28;;;-2.64
49567;BMP280;35472;50.514;30.448;2024-01-11T02:03:06;99989.97;;;-2.77
49567;BMP280;35472;50.514;30.448;2024-01-11T02:05:31;99986.78;;;-2.65
49567;BMP280;35472;50.514;30.448;2024-01-11T02:07:57;99975.84;;;-2.59
49567;BMP280;35472;50.514;30.448;2024-01-11T02:10:24;99969.72;;;-2.68
49567;BMP280;35472;50.514;30.448;2024-01-11T02:12:50;99966.19;;;-2.63
49567;BMP280;35472;50.514;30.448;2024-01-11T02:15:17;99962.13;;;-2.69
49567;BMP280;35472;50.514;30.448;2024-01-11T02:17:43;99962.66;;;-2.59
49567;BMP280;35472;50.514;30.448;2024-01-11T02:20:08;99955.66;;;-2.32
49567;BMP280;35472;50.514;30.448;2024-01-11T02:22:38;99948.97;;;-2.69
49567;BMP280;35472;50.514;30.448;2024-01-11T02:25:05;99950.56;;;-2.60
49567;BMP280;35472;50.514;30.448;2024-01-11T02:27:31;99933.91;;;-2.47
49567;BMP280;35472;50.514;30.448;2024-01-11T02:29:56;99929.22;;;-2.50
49567;BMP280;35472;50.514;30.448;2024-01-11T02:32:22;99926.56;;;-2.58
49567;BMP280;35472;50.514;30.448;2024-01-11T02:34:47;99932.00;;;-2.55
49567;BMP280;35472;50.514;30.448;2024-01-11T02:37:13;99927.22;;;-2.53
49567;BMP280;35472;50.514;30.448;2024-01-11T02:39:39;99913.91;;;-2.56
49567;BMP280;35472;50.514;30.448;2024-01-11T02:42:04;99899.47;;;-2.59
49567;BMP280;35472;50.514;30.448;2024-01-11T02:44:30;99897.00;;;-2.55
49567;BMP280;35472;50.514;30.448;2024-01-11T02:46:55;99884.75;;;-2.60
49567;BMP280;35472;50.514;30.448;2024-01-11T02:49:20;99888.06;;;-2.77
49567;BMP280;35472;50.514;30.448;2024-01-11T02:51:46;99883.81;;;-2.55
49567;BMP280;35472;50.514;30.448;2024-01-11T02:54:11;99883.25;;;-2.35
49567;BMP280;35472;50.514;30.448;2024-01-11T02:56:37;99875.53;;;-2.31
49567;BMP280;35472;50.514;30.448;2024-01-11T02:59:04;99863.25;;;-2.45
49567;BMP280;35472;50.514;30.448;2024-01-11T03:01:29;99846.69;;;-2.37
49567;BMP280;35472;50.514;30.448;2024-01-11T03:03:57;99851.53;;;-2.21
49567;BMP280;35472;50.514;30.448;2024-01-11T03:06:23;99840.00;;;-2.43
49567;BMP280;35472;50.514;30.448;2024-01-11T03:08:49;99844.56;;;-2.26
49567;BMP280;35472;50.514;30.448;2024-01-11T03:11:14;99832.59;;;-2.41
49567;BMP280;35472;50.514;30.448;2024-01-11T03:13:41;99841.59;;;-2.33
49567;BMP280;35472;50.514;30.448;2024-01-11T03:16:07;99833.88;;;-2.21
49567;BMP280;35472;50.514;30.448;2024-01-11T03:18:32;99822.25;;;-2.28
49567;BMP280;35472;50.514;30.448;2024-01-11T03:20:57;99810.44;;;-2.40
49567;BMP280;35472;50.514;30.448;2024-01-11T03:23:22;99796.03;;;-2.33
49567;BMP280;35472;50.514;30.448;2024-01-11T03:25:48;99794.97;;;-2.24
49567;BMP280;35472;50.514;30.448;2024-01-11T03:28:13;99787.63;;;-2.35
49567;BMP280;35472;50.514;30.448;2024-01-11T03:30:38;99783.34;;;-2.23
49567;BMP280;35472;50.514;30.448;2024-01-11T03:33:04;99766.41;;;-2.48
49567;BMP280;35472;50.514;30.448;2024-01-11T03:35:29;99754.03;;;-2.39
49567;BMP280;35472;50.514;30.448;2024-01-11T03:37:55;99742.84;;;-2.35
49567;BMP280;35472;50.514;30.448;2024-01-11T03:40:20;99730.16;;;-2.59
49567;BMP280;35472;50.514;30.448;2024-01-11T03:42:49;99727.81;;;-2.44
49567;BMP280;35472;50.514;30.448;2024-01-11T03:45:20;99728.31;;;-2.50
49567;BMP280;35472;50.514;30.448;2024-01-11T03:47:45;99721.16;;;-2.41
49567;BMP280;35472;50.514;30.448;2024-01-11T03:50:11;99720.53;;;-2.29
49567;BMP280;35472;50.514;30.448;2024-01-11T03:52:39;99721.16;;;-2.41
49567;BMP280;35472;50.514;30.448;2024-01-11T03:55:05;99717.31;;;-2.52
49567;BMP280;35472;50.514;30.448;2024-01-11T03:57:30;99717.63;;;-2.45
49567;BMP280;35472;50.514;30.448;2024-01-11T03:59:55;99698.69;;;-2.56
49567;BMP280;35472;50.514;30.448;2024-01-11T04:02:21;99705.06;;;-2.48
49567;BMP280;35472;50.514;30.448;2024-01-11T04:04:46;99699.78;;;-2.40
49567;BMP280;35472;50.514;30.448;2024-01-11T04:07:11;99697.00;;;-2.34
49567;BMP280;35472;50.514;30.448;2024-01-11T04:09:40;99693.09;;;-2.37
49567;BMP280;35472;50.514;30.448;2024-01-11T04:12:06;99689.72;;;-2.46
49567;BMP280;35472;50.514;30.448;2024-01-11T04:14:37;99701.34;;;-2.39
49567;BMP280;35472;50.514;30.448;2024-01-11T04:17:03;99694.53;;;-2.48
49567;BMP280;35472;50.514;30.448;2024-01-11T04:19:29;99705.06;;;-2.40
49567;BMP280;35472;50.514;30.448;2024-01-11T04:21:54;99708.31;;;-2.34
49567;BMP280;35472;50.514;30.448;2024-01-11T04:24:21;99713.41;;;-2.12
49567;BMP280;35472;50.514;30.448;2024-01-11T04:26:47;99706.16;;;-2.23
49567;BMP280;35472;50.514;30.448;2024-01-11T04:29:12;99698.06;;;-2.35
49567;BMP280;35472;50.514;30.448;2024-01-11T04:31:37;99690.19;;;-2.44
49567;BMP280;35472;50.514;30.448;2024-01-11T04:34:03;99687.09;;;-2.38
49567;BMP280;35472;50.514;30.448;2024-01-11T04:36:28;99680.72;;;-2.37
49567;BMP280;35472;50.514;30.448;2024-01-11T04:38:53;99687.53;;;-2.35
49567;BMP280;35472;50.514;30.448;2024-01-11T04:41:18;99687.88;;;-2.20
49567;BMP280;35472;50.514;30.448;2024-01-11T04:43:44;99685.38;;;-2.08
49567;BMP280;35472;50.514;30.448;2024-01-11T04:46:20;99680.25;;;-2.30
49567;BMP280;35472;50.514;30.448;2024-01-11T04:48:46;99679.19;;;-2.38
49567;BMP280;35472;50.514;30.448;2024-01-11T04:51:13;99676.84;;;-2.30
49567;BMP280;35472;50.514;30.448;2024-01-11T04:53:43;99676.25;;;-2.27
49567;BMP280;35472;50.514;30.448;2024-01-11T04:56:10;99686.47;;;-2.26
49567;BMP280;35472;50.514;30.448;2024-01-11T04:58:36;99688.94;;;-2.21
49567;BMP280;35472;50.514;30.448;2024-01-11T05:01:04;99687.38;;;-2.30
49567;BMP280;35472;50.514;30.448;2024-01-11T05:03:29;99672.66;;;-2.31
49567;BMP280;35472;50.514;30.448;2024-01-11T05:05:55;99674.53;;;-2.23
49567;BMP280;35472;50.514;30.448;2024-01-11T05:08:20;99670.34;;;-2.24
49567;BMP280;35472;50.514;30.448;2024-01-11T05:10:46;99676.72;;;-2.25
49567;BMP280;35472;50.514;30.448;2024-01-11T05:13:11;99670.34;;;-2.16
49567;BMP280;35472;50.514;30.448;2024-01-11T05:15:36;99668.19;;;-2.22
49567;BMP280;35472;50.514;30.448;2024-01-11T05:18:02;99661.66;;;-2.42
49567;BMP280;35472;50.514;30.448;2024-01-11T05:20:27;99655.16;;;-2.27
49567;BMP280;35472;50.514;30.448;2024-01-11T05:22:52;99659.81;;;-2.33
49567;BMP280;35472;50.514;30.448;2024-01-11T05:25:18;99665.84;;;-2.24
49567;BMP280;35472;50.514;30.448;2024-01-11T05:27:43;99659.19;;;-2.13
49567;BMP280;35472;50.514;30.448;2024-01-11T05:30:09;99662.13;;;-2.31
49567;BMP280;35472;50.514;30.448;2024-01-11T05:32:35;99654.69;;;-2.21
49567;BMP280;35472;50.514;30.448;2024-01-11T05:35:00;99651.44;;;-2.44
49567;BMP280;35472;50.514;30.448;2024-01-11T05:37:25;99657.00;;;-2.37
49567;BMP280;35472;50.514;30.448;2024-01-11T05:39:51;99659.31;;;-2.18
49567;BMP280;35472;50.514;30.448;2024-01-11T05:42:17;99647.09;;;-2.22
49567;BMP280;35472;50.514;30.448;2024-01-11T05:44:44;99639.97;;;-2.39
49567;BMP280;35472;50.514;30.448;2024-01-11T05:47:12;99647.56;;;-2.29
49567;BMP280;35472;50.514;30.448;2024-01-11T05:49:37;99647.88;;;-2.22
49567;BMP280;35472;50.514;30.448;2024-01-11T05:52:03;99633.31;;;-2.37
49567;BMP280;35472;50.514;30.448;2024-01-11T05:54:28;99635.94;;;-2.19
49567;BMP280;35472;50.514;30.448;2024-01-11T05:56:54;99624.78;;;-2.33
49567;BMP280;35472;50.514;30.448;2024-01-11T05:59:22;99621.69;;;-2.27
49567;BMP280;35472;50.514;30.448;2024-01-11T06:01:47;99606.19;;;-2.28
49567;BMP280;35472;50.514;30.448;2024-01-11T06:04:12;99593.50;;;-2.26
49567;BMP280;35472;50.514;30.448;2024-01-11T06:06:38;99592.84;;;-2.23
49567;BMP280;35472;50.514;30.448;2024-01-11T06:09:03;99602.00;;;-2.21
49567;BMP280;35472;50.514;30.448;2024-01-11T06:11:34;99597.94;;;-2.18
49567;BMP280;35472;50.514;30.448;2024-01-11T06:13:59;99581.81;;;-2.17
49567;BMP280;35472;50.514;30.448;2024-01-11T06:16:26;99587.38;;;-2.01
49567;BMP280;35472;50.514;30.448;2024-01-11T06:18:51;99590.41;;;-1.82
49567;BMP280;35472;50.514;30.448;2024-01-11T06:21:17;99588.78;;;-1.74
49567;BMP280;35472;50.514;30.448;2024-01-11T06:23:45;99590.72;;;-1.83
49567;BMP280;35472;50.514;30.448;2024-01-11T06:26:11;99602.56;;;-1.69
49567;BMP280;35472;50.514;30.448;2024-01-11T06:28:36;99591.91;;;-1.72
49567;BMP280;35472;50.514;30.448;2024-01-11T06:31:02;99596.91;;;-1.79
49567;BMP280;35472;50.514;30.448;2024-01-11T06:33:28;99580.06;;;-1.95
49567;BMP280;35472;50.514;30.448;2024-01-11T06:35:53;99586.91;;;-2.12
49567;BMP280;35472;50.514;30.448;2024-01-11T06:38:19;99593.22;;;-1.95
49567;BMP280;35472;50.514;30.448;2024-01-11T06:40:44;99582.88;;;-2.09
49567;BMP280;35472;50.514;30.448;2024-01-11T06:43:09;99584.81;;;-1.89
49567;BMP280;35472;50.514;30.448;2024-01-11T06:45:35;99588.69;;;-1.86
49567;BMP280;35472;50.514;30.448;2024-01-11T06:48:00;99587.97;;;-2.04
49567;BMP280;35472;50.514;30.448;2024-01-11T06:50:26;99568.94;;;-2.10
49567;BMP280;35472;50.514;30.448;2024-01-11T06:52:51;99578.47;;;-1.88
49567;BMP280;35472;50.514;30.448;2024-01-11T06:55:16;99574.63;;;-1.99
49567;BMP280;35472;50.514;30.448;2024-01-11T06:57:42;99577.84;;;-1.93
49567;BMP280;35472;50.514;30.448;2024-01-11T07:00:07;99584.66;;;-1.84
49567;BMP280;35472;50.514;30.448;2024-01-11T07:02:33;99585.31;;;-1.95
49567;BMP280;35472;50.514;30.448;2024-01-11T07:04:58;99570.88;;;-1.89
49567;BMP280;35472;50.514;30.448;2024-01-11T07:07:24;99552.25;;;-2.22
49567;BMP280;35472;50.514;30.448;2024-01-11T07:09:51;99563.38;;;-2.17
49567;BMP280;35472;50.514;30.448;2024-01-11T07:12:20;99558.47;;;-1.89
49567;BMP280;35472;50.514;30.448;2024-01-11T07:14:45;99551.56;;;-2.11
49567;BMP280;35472;50.514;30.448;2024-01-11T07:17:10;99543.16;;;-1.95
49567;BMP280;35472;50.514;30.448;2024-01-11T07:19:36;99551.94;;;-1.91
49567;BMP280;35472;50.514;30.448;2024-01-11T07:22:02;99543.91;;;-1.95
49567;BMP280;35472;50.514;30.448;2024-01-11T07:24:27;99542.03;;;-1.86
49567;BMP280;35472;50.514;30.448;2024-01-11T07:26:54;99540.06;;;-1.68
49567;BMP280;35472;50.514;30.448;2024-01-11T07:29:20;99539.94;;;-1.72
49567;BMP280;35472;50.514;30.448;2024-01-11T07:31:47;99533.88;;;-2.02
49567;BMP280;35472;50.514;30.448;2024-01-11T07:34:12;99536.03;;;-1.66
49567;BMP280;35472;50.514;30.448;2024-01-11T07:36:38;99533.69;;;-1.67
49567;BMP280;35472;50.514;30.448;2024-01-11T07:39:03;99525.59;;;-1.83
49567;BMP280;35472;50.514;30.448;2024-01-11T07:41:29;99519.84;;;-1.93
49567;BMP280;35472;50.514;30.448;2024-01-11T07:43:54;99521.28;;;-1.67
49567;BMP280;35472;50.514;30.448;2024-01-11T07:46:25;99499.81;;;-1.77
49567;BMP280;35472;50.514;30.448;2024-01-11T07:48:50;99499.22;;;-1.62
49567;BMP280;35472;50.514;30.448;2024-01-11T07:51:16;99504.81;;;-1.93
49567;BMP280;35472;50.514;30.448;2024-01-11T07:53:41;99505.97;;;-2.03
49567;BMP280;35472;50.514;30.448;2024-01-11T07:56:06;99499.91;;;-1.74
49567;BMP280;35472;50.514;30.448;2024-01-11T07:58:32;99502.81;;;-1.67
49567;BMP280;35472;50.514;30.448;2024-01-11T08:00:57;99500.97;;;-1.45
49567;BMP280;35472;50.514;30.448;2024-01-11T08:03:23;99503.03;;;-1.51
49567;BMP280;35472;50.514;30.448;2024-01-11T08:05:48;99503.56;;;-1.57
49567;BMP280;35472;50.514;30.448;2024-01-11T08:08:15;99505.66;;;-1.72
49567;BMP280;35472;50.514;30.448;2024-01-11T08:10:41;99504.94;;;-1.60
49567;BMP280;35472;50.514;30.448;2024-01-11T08:13:06;99513.38;;;-1.46
49567;BMP280;35472;50.514;30.448;2024-01-11T08:15:31;99517.13;;;-1.47
49567;BMP280;35472;50.514;30.448;2024-01-11T08:17:57;99506.81;;;-1.61
49567;BMP280;35472;50.514;30.448;2024-01-11T08:20:22;99520.22;;;-1.45
49567;BMP280;35472;50.514;30.448;2024-01-11T08:22:47;99516.81;;;-1.75
49567;BMP280;35472;50.514;30.448;2024-01-11T08:25:13;99514.84;;;-1.78
49567;BMP280;35472;50.514;30.448;2024-01-11T08:27:38;99528.84;;;-1.56
49567;BMP280;35472;50.514;30.448;2024-01-11T08:30:04;99534.78;;;-1.68
49567;BMP280;35472;50.514;30.448;2024-01-11T08:32:30;99515.50;;;-1.39
49567;BMP280;35472;50.514;30.448;2024-01-11T08:34:58;99521.63;;;-1.47
49567;BMP280;35472;50.514;30.448;2024-01-11T08:37:24;99524.72;;;-1.45
49567;BMP280;35472;50.514;30.448;2024-01-11T08:39:50;99511.97;;;-1.43
49567;BMP280;35472;50.514;30.448;2024-01-11T08:42:15;99507.59;;;-1.39
49567;BMP280;35472;50.514;30.448;2024-01-11T08:44:41;99495.75;;;-1.54
49567;BMP280;35472;50.514;30.448;2024-01-11T08:47:08;99501.75;;;-1.24
49567;BMP280;35472;50.514;30.448;2024-01-11T08:49:40;99502.66;;;-1.20
49567;BMP280;35472;50.514;30.448;2024-01-11T08:52:07;99500.59;;;-1.14
49567;BMP280;35472;50.514;30.448;2024-01-11T08:54:33;99504.63;;;-1.17
49567;BMP280;35472;50.514;30.448;2024-01-11T08:56:58;99517.94;;;-1.34
49567;BMP280;35472;50.514;30.448;2024-01-11T08:59:24;99506.63;;;-1.35
49567;BMP280;35472;50.514;30.448;2024-01-11T09:01:51;99494.78;;;-1.70
49567;BMP280;35472;50.514;30.448;2024-01-11T09:04:17;99485.72;;;-1.40
49567;BMP280;35472;50.514;30.448;2024-01-11T09:06:43;99488.63;;;-1.53
49567;BMP280;35472;50.514;30.448;2024-01-11T09:09:08;99479.47;;;-1.35
49567;BMP280;35472;50.514;30.448;2024-01-11T09:11:35;99465.22;;;-1.76
49567;BMP280;35472;50.514;30.448;2024-01-11T09:14:01;99470.81;;;-1.56
49567;BMP280;35472;50.514;30.448;2024-01-11T09:16:28;99453.28;;;-1.40
49567;BMP280;35472;50.514;30.448;2024-01-11T09:18:53;99458.44;;;-1.44
49567;BMP280;35472;50.514;30.448;2024-01-11T09:21:21;99454.06;;;-1.61
49567;BMP280;35472;50.514;30.448;2024-01-11T09:23:46;99438.31;;;-1.28
49567;BMP280;35472;50.514;30.448;2024-01-11T09:26:12;99438.97;;;-1.51
49567;BMP280;35472;50.514;30.448;2024-01-11T09:28:37;99443.81;;;-1.41
49567;BMP280;35472;50.514;30.448;2024-01-11T09:31:03;99427.56;;;-1.10
49567;BMP280;35472;50.514;30.448;2024-01-11T09:33:29;99431.31;;;-1.11
49567;BMP280;35472;50.514;30.448;2024-01-11T09:35:54;99430.78;;;-1.05
49567;BMP280;35472;50.514;30.448;2024-01-11T09:38:21;99429.19;;;-1.18
49567;BMP280;35472;50.514;30.448;2024-01-11T09:40:57;99425.69;;;-1.10
49567;BMP280;35472;50.514;30.448;2024-01-11T09:43:27;99422.19;;;-1.14
49567;BMP280;35472;50.514;30.448;2024-01-11T09:45:53;99417.16;;;-1.07
49567;BMP280;35472;50.514;30.448;2024-01-11T09:48:20;99413.72;;;-1.07
49567;BMP280;35472;50.514;30.448;2024-01-11T09:50:46;99421.03;;;-0.80
49567;BMP280;35472;50.514;30.448;2024-01-11T09:53:13;99415.97;;;-0.61
49567;BMP280;35472;50.514;30.448;2024-01-11T09:55:38;99399.56;;;-0.54
49567;BMP280;35472;50.514;30.448;2024-01-11T09:58:04;99404.84;;;-0.91
49567;BMP280;35472;50.514;30.448;2024-01-11T10:00:30;99402.22;;;-0.66
49567;BMP280;35472;50.514;30.448;2024-01-11T10:02:55;99394.72;;;-0.89
49567;BMP280;35472;50.514;30.448;2024-01-11T10:05:21;99404.31;;;-0.72
49567;BMP280;35472;50.514;30.448;2024-01-11T10:07:48;99395.16;;;-0.74
49567;BMP280;35472;50.514;30.448;2024-01-11T10:10:14;99394.19;;;-0.70
49567;BMP280;35472;50.514;30.448;2024-01-11T10:12:42;99396.81;;;-0.94
49567;BMP280;35472;50.514;30.448;2024-01-11T10:15:10;99384.16;;;-0.89
49567;BMP280;35472;50.514;30.448;2024-01-11T10:17:45;99372.72;;;-0.68
49567;BMP280;35472;50.514;30.448;2024-01-11T10:20:12;99363.91;;;-0.60
49567;BMP280;35472;50.514;30.448;2024-01-11T10:22:41;99373.03;;;-0.33
49567;BMP280;35472;50.514;30.448;2024-01-11T10:25:11;99361.56;;;-0.38
49567;BMP280;35472;50.514;30.448;2024-01-11T10:27:41;99358.56;;;-0.12
49567;BMP280;35472;50.514;30.448;2024-01-11T10:30:11;99348.94;;;-0.68
49567;BMP280;35472;50.514;30.448;2024-01-11T10:32:48;99350.25;;;-0.74
49567;BMP280;35472;50.514;30.448;2024-01-11T10:35:14;99344.22;;;-0.87
49567;BMP280;35472;50.514;30.448;2024-01-11T10:37:40;99345.84;;;-0.46
49567;BMP280;35472;50.514;30.448;2024-01-11T10:40:08;99341.69;;;-0.59
49567;BMP280;35472;50.514;30.448;2024-01-11T10:42:45;99340.13;;;-0.60
49567;BMP280;35472;50.514;30.448;2024-01-11T10:45:15;99335.66;;;-0.84
49567;BMP280;35472;50.514;30.448;2024-01-11T10:48:12;99335.94;;;-0.49
49567;BMP280;35472;50.514;30.448;2024-01-11T10:50:42;99339.91;;;-0.31
49567;BMP280;35472;50.514;30.448;2024-01-11T10:53:19;99331.00;;;-0.26
49567;BMP280;35472;50.514;30.448;2024-01-11T10:55:50;99314.28;;;-0.67
49567;BMP280;35472;50.514;30.448;2024-01-11T10:58:16;99309.09;;;-0.51
49567;BMP280;35472;50.514;30.448;2024-01-11T11:00:42;99319.25;;;-0.77
49567;BMP280;35472;50.514;30.448;2024-01-11T11:03:09;99306.75;;;-0.41
49567;BMP280;35472;50.514;30.448;2024-01-11T11:05:36;99308.88;;;-0.46
49567;BMP280;35472;50.514;30.448;2024-01-11T11:08:03;99312.53;;;-0.75
49567;BMP280;35472;50.514;30.448;2024-01-11T11:10:32;99312.19;;;-0.86
49567;BMP280;35472;50.514;30.448;2024-01-11T11:12:59;99313.97;;;-0.65
49567;BMP280;35472;50.514;30.448;2024-01-11T11:15:27;99306.09;;;-0.50
49567;BMP280;35472;50.514;30.448;2024-01-11T11:17:52;99303.69;;;-0.55
49567;BMP280;35472;50.514;30.448;2024-01-11T11:20:18;99304.72;;;-0.71
49567;BMP280;35472;50.514;30.448;2024-01-11T11:23:02;99293.16;;;-0.79
49567;BMP280;35472;50.514;30.448;2024-01-11T11:25:29;99289.69;;;-0.43
49567;BMP280;35472;50.514;30.448;2024-01-11T11:27:58;99281.09;;;-0.40
49567;BMP280;35472;50.514;30.448;2024-01-11T11:30:26;99278.53;;;-0.64
49567;BMP280;35472;50.514;30.448;2024-01-11T11:32:52;99274.78;;;-0.63
49567;BMP280;35472;50.514;30.448;2024-01-11T11:35:19;99272.22;;;-0.60
49567;BMP280;35472;50.514;30.448;2024-01-11T11:37:45;99271.47;;;-0.60
49567;BMP280;35472;50.514;30.448;2024-01-11T11:40:11;99264.53;;;-0.65
49567;BMP280;35472;50.514;30.448;2024-01-11T11:42:36;99265.94;;;-0.55
49567;BMP280;35472;50.514;30.448;2024-01-11T11:45:02;99273.09;;;-0.56
49567;BMP280;35472;50.514;30.448;2024-01-11T11:47:35;99271.13;;;-0.59
49567;BMP280;35472;50.514;30.448;2024-01-11T11:50:09;99262.28;;;-1.03
49567;BMP280;35472;50.514;30.448;2024-01-11T11:52:40;99270.59;;;-0.64
49567;BMP280;35472;50.514;30.448;2024-01-11T11:55:09;99266.75;;;-0.67
49567;BMP280;35472;50.514;30.448;2024-01-11T11:57:35;99254.13;;;-1.10
49567;BMP280;35472;50.514;30.448;2024-01-11T12:00:03;99248.91;;;-0.58
49567;BMP280;35472;50.514;30.448;2024-01-11T12:02:36;99237.16;;;-0.72
49567;BMP280;35472;50.514;30.448;2024-01-11T12:05:02;99234.31;;;-0.40
49567;BMP280;35472;50.514;30.448;2024-01-11T12:07:29;99231.22;;;-0.42
49567;BMP280;35472;50.514;30.448;2024-01-11T12:09:55;99228.69;;;-0.38
49567;BMP280;35472;50.514;30.448;2024-01-11T12:12:20;99226.19;;;-0.47
49567;BMP280;35472;50.514;30.448;2024-01-11T12:14:47;99217.72;;;-0.52
49567;BMP280;35472;50.514;30.448;2024-01-11T12:17:14;99222.16;;;-0.68
49567;BMP280;35472;50.514;30.448;2024-01-11T12:19:40;99212.63;;;-0.73
49567;BMP280;35472;50.514;30.448;2024-01-11T12:22:05;99208.50;;;-0.58
49567;BMP280;35472;50.514;30.448;2024-01-11T12:24:33;99207.06;;;-0.56
49567;BMP280;35472;50.514;30.448;2024-01-11T12:27:01;99210.47;;;-0.55
49567;BMP280;35472;50.514;30.448;2024-01-11T12:29:30;99205.38;;;-0.48
49567;BMP280;35472;50.514;30.448;2024-01-11T12:31:57;99197.06;;;-0.34
49567;BMP280;35472;50.514;30.448;2024-01-11T12:34:27;99197.53;;;-0.72
49567;BMP280;35472;50.514;30.448;2024-01-11T12:36:53;99202.69;;;-0.64
49567;BMP280;35472;50.514;30.448;2024-01-11T12:39:20;99199.53;;;-0.69
49567;BMP280;35472;50.514;30.448;2024-01-11T12:41:49;99197.53;;;-0.72
49567;BMP280;35472;50.514;30.448;2024-01-11T12:44:17;99191.25;;;-0.68
49567;BMP280;35472;50.514;30.448;2024-01-11T12:46:44;99190.16;;;-0.39
49567;BMP280;35472;50.514;30.448;2024-01-11T12:49:10;99188.38;;;-0.63
49567;BMP280;35472;50.514;30.448;2024-01-11T12:51:36;99188.75;;;-0.49
49567;BMP280;35472;50.514;30.448;2024-01-11T12:54:03;99182.34;;;-0.63
49567;BMP280;35472;50.514;30.448;2024-01-11T12:56:29;99181.91;;;-0.65
49567;BMP280;35472;50.514;30.448;2024-01-11T12:59:05;99184.88;;;-0.39
49567;BMP280;35472;50.514;30.448;2024-01-11T13:01:32;99185.47;;;-0.46
49567;BMP280;35472;50.514;30.448;2024-01-11T13:03:57;99172.22;;;-0.73
49567;BMP280;35472;50.514;30.448;2024-01-11T13:06:23;99177.38;;;-0.65
49567;BMP280;35472;50.514;30.448;2024-01-11T13:08:48;99177.25;;;-0.68
49567;BMP280;35472;50.514;30.448;2024-01-11T13:11:13;99168.88;;;-0.30
49567;BMP280;35472;50.514;30.448;2024-01-11T13:13:41;99169.28;;;-0.56
49567;BMP280;35472;50.514;30.448;2024-01-11T13:16:07;99155.44;;;-0.53
49567;BMP280;35472;50.514;30.448;2024-01-11T13:18:38;99148.56;;;-0.70
49567;BMP280;35472;50.514;30.448;2024-01-11T13:21:03;99153.44;;;-0.56
49567;BMP280;35472;50.514;30.448;2024-01-11T13:23:29;99153.66;;;-0.49
49567;BMP280;35472;50.514;30.448;2024-01-11T13:25:54;99144.34;;;-0.59
49567;BMP280;35472;50.514;30.448;2024-01-11T13:28:19;99140.25;;;-0.56
49567;BMP280;35472;50.514;30.448;2024-01-11T13:30:45;99128.16;;;-0.57
49567;BMP280;35472;50.514;30.448;2024-01-11T13:33:11;99130.88;;;-0.54
49567;BMP280;35472;50.514;30.448;2024-01-11T13:35:38;99124.38;;;-0.72
49567;BMP280;35472;50.514;30.448;2024-01-11T13:38:04;99123.50;;;-0.76
49567;BMP280;35472;50.514;30.448;2024-01-11T13:40:30;99109.00;;;-0.82
49567;BMP280;35472;50.514;30.448;2024-01-11T13:42:56;99112.94;;;-0.76
49567;BMP280;35472;50.514;30.448;2024-01-11T13:45:25;99123.31;;;-0.83
49567;BMP280;35472;50.514;30.448;2024-01-11T13:47:51;99124.94;;;-0.78
49567;BMP280;35472;50.514;30.448;2024-01-11T13:50:24;99122.63;;;-0.52